Time;durP1;ratioP1;P1;durP2;ratioP2;P2;SDS_P1;SDS_P2;PMS_P1;PMS_P2;Temp;Humidity;BMP_temperature;BMP_pressure;BME280_temperature;BME280_humidity;BME280_pressure;Samples;Min_cycle;Max_cycle;Signal;HPM_P1;HPM_P2
2021/12/09 00:01:14;;;;;;;52.77;21.40;;;-2.30;99.90;;;;;;4993475;28;20198;-80
2021/12/09 00:03:43;;;;;;;49.23;19.90;;;-2.40;99.90;;;;;;4993268;28;20191;-80
2021/12/09 00:06:12;;;;;;;56.83;24.87;;;-2.40;99.90;;;;;;4993645;28;20191;-79
2021/12/09 00:08:41;;;;;;;54.33;21.70;;;-2.40;99.90;;;;;;4993306;28;20191;-80
2021/12/09 00:11:10;;;;;;;52.63;22.00;;;-2.40;99.90;;;;;;4993331;28;20294;-80
2021/12/09 00:13:37;;;;;;;52.67;23.33;;;-2.40;99.90;;;;;;4993261;28;20221;-79
2021/12/09 00:16:07;;;;;;;47.80;20.93;;;-2.40;99.90;;;;;;4993385;28;20253;-80
2021/12/09 00:18:34;;;;;;;49.90;21.47;;;-2.40;99.90;;;;;;4993342;28;20207;-80
2021/12/09 00:21:03;;;;;;;47.33;19.63;;;-2.40;99.90;;;;;;4993609;28;20253;-80
2021/12/09 00:23:30;;;;;;;46.70;21.40;;;-2.40;99.90;;;;;;4993231;28;20198;-80
2021/12/09 00:25:57;;;;;;;50.00;21.90;;;-2.40;99.90;;;;;;4993187;28;20245;-80
2021/12/09 00:28:24;;;;;;;50.77;21.57;;;-2.40;99.90;;;;;;4992559;28;20263;-80
2021/12/09 00:30:51;;;;;;;46.17;21.37;;;-2.40;99.90;;;;;;4993093;28;20198;-80
2021/12/09 00:33:19;;;;;;;53.47;21.80;;;-2.30;99.90;;;;;;4992910;28;20222;-80
2021/12/09 00:35:50;;;;;;;45.73;20.30;;;-2.40;99.90;;;;;;4993283;28;20607;-80
2021/12/09 00:38:22;;;;;;;45.20;20.33;;;-2.40;99.90;;;;;;4992975;28;20292;-80
2021/12/09 00:40:51;;;;;;;51.80;20.97;;;-2.40;99.90;;;;;;4993352;28;20277;-80
2021/12/09 00:43:20;;;;;;;50.93;20.20;;;-2.40;99.90;;;;;;4992795;28;20210;-80
2021/12/09 00:45:47;;;;;;;54.73;21.13;;;-2.40;99.90;;;;;;4993370;28;20198;-79
2021/12/09 00:48:14;;;;;;;50.80;21.53;;;-2.40;99.90;;;;;;4992775;28;20202;-80
2021/12/09 00:50:41;;;;;;;53.23;21.23;;;-2.40;99.90;;;;;;4993094;28;20198;-80
2021/12/09 00:53:08;;;;;;;48.20;20.90;;;-2.40;99.90;;;;;;4992807;28;20194;-80
2021/12/09 00:55:38;;;;;;;53.10;21.93;;;-2.40;99.90;;;;;;4993178;28;20253;-80
2021/12/09 00:58:06;;;;;;;50.07;22.07;;;-2.30;99.90;;;;;;4993037;28;20217;-80
2021/12/09 01:00:33;;;;;;;52.53;23.13;;;-2.40;99.90;;;;;;4993097;28;20229;-80
2021/12/09 01:03:00;;;;;;;50.33;21.23;;;-2.40;99.90;;;;;;4992901;28;20281;-80
2021/12/09 01:05:29;;;;;;;50.77;21.43;;;-2.40;99.90;;;;;;4992864;28;20195;-80
2021/12/09 01:07:57;;;;;;;51.30;21.63;;;-2.40;99.90;;;;;;4992908;28;20656;-80
2021/12/09 01:10:25;;;;;;;49.67;22.50;;;-2.40;99.90;;;;;;4992563;28;20195;-80
2021/12/09 01:12:53;;;;;;;54.20;20.80;;;-2.40;99.90;;;;;;4992943;28;20199;-80
2021/12/09 01:15:21;;;;;;;54.00;23.50;;;-2.40;99.90;;;;;;4992837;28;20245;-80
2021/12/09 01:17:48;;;;;;;49.57;21.77;;;-2.40;99.90;;;;;;4992239;28;20280;-79
2021/12/09 01:20:18;;;;;;;57.37;24.17;;;-2.50;99.90;;;;;;4992749;28;20245;-80
2021/12/09 01:22:46;;;;;;;52.33;21.27;;;-2.50;99.90;;;;;;4992409;28;20599;-80
2021/12/09 01:25:16;;;;;;;57.57;22.53;;;-2.50;99.90;;;;;;4992779;28;20202;-80
2021/12/09 01:27:46;;;;;;;64.07;27.63;;;-2.50;99.90;;;;;;4992554;28;20617;-80
2021/12/09 01:30:17;;;;;;;64.37;25.03;;;-2.50;99.90;;;;;;4992348;28;20199;-80
2021/12/09 01:32:50;;;;;;;62.73;27.37;;;-2.60;99.90;;;;;;4992528;28;20187;-80
2021/12/09 01:35:19;;;;;;;63.67;25.23;;;-2.60;99.90;;;;;;4992952;28;20628;-80
2021/12/09 01:37:47;;;;;;;57.37;23.10;;;-2.60;99.90;;;;;;4992810;28;20286;-80
2021/12/09 01:40:14;;;;;;;52.27;23.17;;;-2.70;99.90;;;;;;4995618;28;20203;-80
2021/12/09 01:42:42;;;;;;;60.20;25.23;;;-2.70;99.90;;;;;;4996105;28;20199;-80
2021/12/09 01:45:09;;;;;;;72.43;28.60;;;-2.70;99.90;;;;;;4995839;28;20253;-79
2021/12/09 01:47:38;;;;;;;62.17;26.43;;;-2.70;99.90;;;;;;4995658;28;20713;-79
2021/12/09 01:50:05;;;;;;;74.00;28.60;;;-2.70;99.90;;;;;;4996042;28;20594;-80
2021/12/09 01:52:32;;;;;;;64.97;24.90;;;-2.70;99.90;;;;;;4995823;28;20217;-80
2021/12/09 01:54:59;;;;;;;77.73;28.47;;;-2.70;99.90;;;;;;4995870;28;20245;-81
2021/12/09 01:57:26;;;;;;;61.23;25.40;;;-2.70;99.90;;;;;;4995643;28;20199;-80
2021/12/09 01:59:53;;;;;;;74.80;28.27;;;-2.70;99.90;;;;;;4995514;28;20261;-80
2021/12/09 02:02:21;;;;;;;76.90;29.53;;;-2.70;99.90;;;;;;4995740;28;20256;-80
2021/12/09 02:04:49;;;;;;;73.37;27.33;;;-2.70;99.90;;;;;;4995339;28;20199;-80
2021/12/09 02:07:17;;;;;;;73.40;29.23;;;-2.70;99.90;;;;;;4995935;28;20191;-80
2021/12/09 02:09:44;;;;;;;67.97;24.67;;;-2.70;99.90;;;;;;4994873;28;20679;-80
2021/12/09 02:12:14;;;;;;;78.13;29.60;;;-2.70;99.90;;;;;;4995187;28;20195;-80
2021/12/09 02:14:43;;;;;;;72.47;27.57;;;-2.60;99.90;;;;;;4995988;28;20619;-79
2021/12/09 02:17:11;;;;;;;76.37;28.80;;;-2.70;99.90;;;;;;4994989;28;20198;-80
2021/12/09 02:19:42;;;;;;;68.37;27.33;;;-2.60;99.90;;;;;;4995325;28;20276;-80
2021/12/09 02:22:10;;;;;;;73.57;29.73;;;-2.60;99.90;;;;;;4995122;28;20706;-79
2021/12/09 02:24:39;;;;;;;70.27;26.33;;;-2.60;99.90;;;;;;4994986;28;20202;-80
2021/12/09 02:27:06;;;;;;;78.33;28.27;;;-2.60;99.90;;;;;;4995080;28;20718;-80
2021/12/09 02:29:33;;;;;;;75.60;27.07;;;-2.60;99.90;;;;;;4995362;28;20244;-80
2021/12/09 02:32:01;;;;;;;79.43;28.50;;;-2.60;99.90;;;;;;4995199;28;20730;-80
2021/12/09 02:34:28;;;;;;;69.73;27.17;;;-2.60;99.90;;;;;;4995123;28;20284;-81
2021/12/09 02:36:55;;;;;;;70.23;26.20;;;-2.60;99.90;;;;;;4995115;28;20194;-81
2021/12/09 02:39:24;;;;;;;76.13;30.47;;;-2.60;99.90;;;;;;4995205;28;20590;-80
2021/12/09 02:41:51;;;;;;;78.57;31.03;;;-2.60;99.90;;;;;;4994851;28;20253;-81
2021/12/09 02:44:20;;;;;;;88.33;31.67;;;-2.60;99.90;;;;;;4995197;28;20212;-81
2021/12/09 02:46:49;;;;;;;71.90;26.77;;;-2.70;99.90;;;;;;4994618;28;20217;-80
2021/12/09 02:49:18;;;;;;;78.30;29.43;;;-2.70;99.90;;;;;;4994254;28;20249;-80
2021/12/09 02:51:47;;;;;;;88.07;31.20;;;-2.70;99.90;;;;;;4994446;28;20191;-81
2021/12/09 02:54:17;;;;;;;80.13;29.40;;;-2.70;99.90;;;;;;4994862;28;20199;-81
2021/12/09 02:56:48;;;;;;;80.90;29.20;;;-2.70;99.90;;;;;;4994506;28;20758;-80
2021/12/09 02:59:15;;;;;;;80.17;28.20;;;-2.70;99.90;;;;;;4994398;28;20326;-80
2021/12/09 03:01:47;;;;;;;72.23;26.93;;;-2.70;99.90;;;;;;4994293;28;20199;-80
2021/12/09 03:04:14;;;;;;;67.77;26.63;;;-2.70;99.90;;;;;;4994678;28;20209;-81
2021/12/09 03:06:43;;;;;;;81.23;29.40;;;-2.70;99.90;;;;;;4994433;28;20249;-82
2021/12/09 03:09:14;;;;;;;82.67;30.27;;;-2.70;99.90;;;;;;4994487;28;20198;-81
2021/12/09 03:11:41;;;;;;;81.80;27.77;;;-2.70;99.90;;;;;;4994182;28;20278;-81
2021/12/09 03:14:12;;;;;;;81.00;30.37;;;-2.60;99.90;;;;;;4993803;28;20669;-81
2021/12/09 03:16:39;;;;;;;59.50;23.10;;;-2.60;99.90;;;;;;4994250;28;20238;-80
2021/12/09 03:19:08;;;;;;;73.17;28.37;;;-2.60;99.90;;;;;;4994301;28;20214;-81
2021/12/09 03:21:38;;;;;;;78.70;27.43;;;-2.60;99.90;;;;;;4994335;28;20201;-81
2021/12/09 03:24:10;;;;;;;70.47;27.40;;;-2.60;99.90;;;;;;4993822;28;20194;-80
2021/12/09 03:26:40;;;;;;;73.67;25.37;;;-2.50;99.90;;;;;;4994363;28;20191;-80
2021/12/09 03:29:12;;;;;;;72.20;26.47;;;-2.60;99.90;;;;;;4993860;28;20195;-80
2021/12/09 03:31:40;;;;;;;74.03;27.50;;;-2.60;99.90;;;;;;4994500;28;20201;-80
2021/12/09 03:34:08;;;;;;;72.00;25.47;;;-2.60;99.90;;;;;;4993976;28;20277;-81
2021/12/09 03:36:36;;;;;;;73.80;27.00;;;-2.50;99.90;;;;;;4993789;28;20246;-81
2021/12/09 03:39:06;;;;;;;70.40;23.27;;;-2.50;99.90;;;;;;4994088;28;20222;-80
2021/12/09 03:41:33;;;;;;;75.47;26.50;;;-2.60;99.90;;;;;;4994211;28;20194;-81
2021/12/09 03:44:01;;;;;;;69.07;25.50;;;-2.60;99.90;;;;;;4993357;28;20655;-80
2021/12/09 03:46:29;;;;;;;75.87;27.97;;;-2.60;99.90;;;;;;4993537;28;20199;-81
2021/12/09 03:48:56;;;;;;;75.43;28.47;;;-2.50;99.90;;;;;;4993749;28;20199;-80
2021/12/09 03:51:24;;;;;;;73.60;26.90;;;-2.50;99.90;;;;;;4993848;28;20198;-80
2021/12/09 03:53:53;;;;;;;92.33;30.73;;;-2.50;99.90;;;;;;4993431;28;20256;-80
2021/12/09 03:56:21;;;;;;;69.57;24.87;;;-2.50;99.90;;;;;;4993345;28;20197;-80
2021/12/09 03:58:48;;;;;;;79.57;26.33;;;-2.50;99.90;;;;;;4993586;28;20210;-81
2021/12/09 04:01:15;;;;;;;71.33;25.30;;;-2.50;99.90;;;;;;4993483;28;20195;-81
2021/12/09 04:03:43;;;;;;;79.60;27.23;;;-2.50;99.90;;;;;;4993340;28;20623;-81
2021/12/09 04:06:10;;;;;;;73.80;26.27;;;-2.50;99.90;;;;;;4993169;28;20198;-80
2021/12/09 04:08:38;;;;;;;72.37;26.47;;;-2.50;99.90;;;;;;4993196;28;20565;-80
2021/12/09 04:11:05;;;;;;;72.90;26.30;;;-2.50;99.90;;;;;;4993908;28;20205;-80
2021/12/09 04:13:34;;;;;;;85.73;29.80;;;-2.40;99.90;;;;;;4993406;28;20198;-80
2021/12/09 04:16:01;;;;;;;73.33;26.43;;;-2.40;99.90;;;;;;4993301;28;20205;-81
2021/12/09 04:18:28;;;;;;;68.53;25.07;;;-2.40;99.90;;;;;;4993389;28;20226;-81
2021/12/09 04:20:57;;;;;;;65.73;24.37;;;-2.40;99.90;;;;;;4993335;28;20245;-81
2021/12/09 04:23:25;;;;;;;70.60;23.70;;;-2.40;99.90;;;;;;4992952;28;20198;-80
2021/12/09 04:25:53;;;;;;;73.13;25.43;;;-2.40;99.90;;;;;;4993091;28;20663;-80
2021/12/09 04:28:20;;;;;;;71.43;26.77;;;-2.40;99.90;;;;;;4993003;28;20663;-81
2021/12/09 04:30:47;;;;;;;63.47;23.10;;;-2.40;99.90;;;;;;4992933;28;20667;-80
2021/12/09 04:33:14;;;;;;;41.47;15.17;;;-2.40;99.90;;;;;;4993087;28;20226;-80
2021/12/09 04:35:41;;;;;;;70.93;25.77;;;-2.40;99.90;;;;;;4993511;28;20187;-80
2021/12/09 04:38:10;;;;;;;74.90;26.20;;;-2.40;99.90;;;;;;4992805;28;20194;-80
2021/12/09 04:40:37;;;;;;;77.93;25.57;;;-2.40;99.90;;;;;;4993362;28;20199;-80
2021/12/09 04:43:04;;;;;;;73.93;28.77;;;-2.40;99.90;;;;;;4992812;28;20257;-81
2021/12/09 04:45:34;;;;;;;75.03;27.27;;;-2.40;99.90;;;;;;4993121;28;20282;-80
2021/12/09 04:48:04;;;;;;;75.53;23.90;;;-2.40;99.90;;;;;;4992739;28;20240;-80
2021/12/09 04:50:31;;;;;;;63.53;22.97;;;-2.40;99.90;;;;;;4992871;28;20556;-80
2021/12/09 04:52:58;;;;;;;72.97;24.90;;;-2.40;99.90;;;;;;4993117;28;20666;-80
2021/12/09 04:55:26;;;;;;;75.80;26.50;;;-2.40;99.90;;;;;;4993006;28;20228;-81
2021/12/09 04:57:53;;;;;;;55.13;21.10;;;-2.40;99.90;;;;;;4993132;28;20190;-81
2021/12/09 05:00:25;;;;;;;66.20;23.30;;;-2.40;99.90;;;;;;4992907;28;20223;-80
2021/12/09 05:03:03;;;;;;;70.57;24.67;;;-2.40;99.90;;;;;;4993073;28;20195;-80
2021/12/09 05:05:35;;;;;;;72.77;25.73;;;-2.40;99.90;;;;;;4993088;28;20193;-80
2021/12/09 05:08:05;;;;;;;55.47;21.20;;;-2.40;99.90;;;;;;4992963;28;20272;-81
2021/12/09 05:10:39;;;;;;;77.23;25.77;;;-2.40;99.90;;;;;;4992921;28;20575;-80
2021/12/09 05:13:06;;;;;;;64.23;22.40;;;-2.40;99.90;;;;;;4993173;28;20631;-81
2021/12/09 05:15:33;;;;;;;75.13;28.00;;;-2.40;99.90;;;;;;4996285;28;20198;-80
2021/12/09 05:18:00;;;;;;;76.07;25.03;;;-2.40;99.90;;;;;;4996710;28;20257;-80
2021/12/09 05:20:30;;;;;;;69.60;25.33;;;-2.40;99.90;;;;;;4996552;28;20218;-81
2021/12/09 05:22:57;;;;;;;74.80;23.20;;;-2.40;99.90;;;;;;4996157;28;20195;-80
2021/12/09 05:25:24;;;;;;;78.60;26.07;;;-2.40;99.90;;;;;;4996097;28;20199;-80
2021/12/09 05:27:53;;;;;;;71.33;25.53;;;-2.40;99.90;;;;;;4996577;28;20611;-80
2021/12/09 05:30:24;;;;;;;80.23;25.20;;;-2.40;99.90;;;;;;4996005;28;20252;-81
2021/12/09 05:32:50;;;;;;;69.07;23.93;;;-2.30;99.90;;;;;;4995886;28;20610;-81
2021/12/09 05:35:18;;;;;;;71.90;24.37;;;-2.30;99.90;;;;;;4996174;28;20670;-80
2021/12/09 05:37:48;;;;;;;70.27;23.57;;;-2.30;99.90;;;;;;4996194;28;20195;-80
2021/12/09 05:40:15;;;;;;;73.70;25.73;;;-2.30;99.90;;;;;;4995864;28;20624;-81
2021/12/09 05:42:43;;;;;;;76.27;26.47;;;-2.30;99.90;;;;;;4996013;28;20269;-80
2021/12/09 05:45:11;;;;;;;71.27;24.97;;;-2.30;99.90;;;;;;4996379;28;20198;-80
2021/12/09 05:47:38;;;;;;;82.87;26.73;;;-2.30;99.90;;;;;;4995906;28;20195;-80
2021/12/09 05:50:07;;;;;;;81.70;27.67;;;-2.30;99.90;;;;;;4995523;28;20618;-79
2021/12/09 05:52:35;;;;;;;69.77;24.73;;;-2.30;99.90;;;;;;4995933;28;20194;-80
2021/12/09 05:55:02;;;;;;;81.77;26.20;;;-2.30;99.90;;;;;;4995611;28;20202;-80
2021/12/09 05:57:29;;;;;;;88.13;30.00;;;-2.30;99.90;;;;;;4995934;28;20241;-80
2021/12/09 05:59:56;;;;;;;78.67;26.20;;;-2.30;99.90;;;;;;4995836;28;20223;-80
2021/12/09 06:02:24;;;;;;;71.07;25.10;;;-2.20;99.90;;;;;;4995731;28;20249;-80
2021/12/09 06:04:52;;;;;;;77.40;27.20;;;-2.20;99.90;;;;;;4995914;28;20257;-80
2021/12/09 06:07:19;;;;;;;80.33;26.83;;;-2.20;99.90;;;;;;4995710;28;20265;-80
2021/12/09 06:09:46;;;;;;;87.40;30.27;;;-2.20;99.90;;;;;;4995594;28;20253;-80
2021/12/09 06:12:13;;;;;;;83.90;28.80;;;-2.20;99.90;;;;;;4995592;28;20190;-80
2021/12/09 06:14:41;;;;;;;73.40;25.57;;;-2.20;99.90;;;;;;4995850;28;20195;-81
2021/12/09 06:17:08;;;;;;;87.13;28.17;;;-2.20;99.90;;;;;;4995151;28;20197;-80
2021/12/09 06:19:37;;;;;;;78.67;26.87;;;-2.20;99.90;;;;;;4995580;28;20667;-80
2021/12/09 06:22:05;;;;;;;81.33;27.73;;;-2.20;99.90;;;;;;4995664;28;20710;-80
2021/12/09 06:27:16;;;;;;;69.83;25.67;;;-2.10;99.90;;;;;;4995171;28;20546;-80
2021/12/09 06:29:43;;;;;;;91.10;30.80;;;-2.10;99.90;;;;;;4995180;28;20198;-80
2021/12/09 06:32:11;;;;;;;74.53;26.13;;;-2.10;99.90;;;;;;4994867;28;20656;-80
2021/12/09 06:34:39;;;;;;;84.23;29.17;;;-2.20;99.90;;;;;;4995369;28;20611;-80
2021/12/09 06:37:07;;;;;;;79.47;26.23;;;-2.10;99.90;;;;;;4994783;28;20655;-80
2021/12/09 06:39:34;;;;;;;79.43;28.70;;;-2.10;99.90;;;;;;4994919;28;20265;-80
2021/12/09 06:42:01;;;;;;;83.27;30.00;;;-2.10;99.90;;;;;;4994803;28;20194;-80
2021/12/09 06:44:28;;;;;;;79.77;25.77;;;-2.10;99.90;;;;;;4994676;28;20210;-80
2021/12/09 06:46:56;;;;;;;75.33;27.80;;;-2.10;99.90;;;;;;4995226;28;20199;-80
2021/12/09 06:49:23;;;;;;;77.87;27.83;;;-2.10;99.90;;;;;;4994935;28;20225;-80
2021/12/09 06:51:52;;;;;;;74.00;26.10;;;-2.10;99.90;;;;;;4994337;28;20672;-80
2021/12/09 06:54:19;;;;;;;79.77;27.57;;;-2.10;99.90;;;;;;4994957;28;20194;-80
2021/12/09 06:56:46;;;;;;;94.77;32.67;;;-2.10;99.90;;;;;;4994964;28;20202;-80
2021/12/09 06:59:13;;;;;;;91.23;30.77;;;-2.10;99.90;;;;;;4994720;28;20265;-80
2021/12/09 07:01:40;;;;;;;77.23;26.90;;;-2.10;99.90;;;;;;4994682;28;20265;-80
2021/12/09 07:04:09;;;;;;;68.93;22.97;;;-2.10;99.90;;;;;;4996234;28;20202;-80
2021/12/09 07:06:36;;;;;;;78.37;26.97;;;-2.20;99.90;;;;;;4994642;28;20601;-80
2021/12/09 07:09:05;;;;;;;75.50;27.27;;;-2.10;99.90;;;;;;4994510;28;20191;-80
2021/12/09 07:11:33;;;;;;;72.80;26.73;;;-2.10;99.90;;;;;;4994103;28;20195;-80
2021/12/09 07:14:01;;;;;;;85.13;28.10;;;-2.10;99.90;;;;;;4994465;28;20191;-80
2021/12/09 07:16:29;;;;;;;72.97;25.70;;;-2.10;99.90;;;;;;4994294;28;20241;-80
2021/12/09 07:18:56;;;;;;;80.30;27.90;;;-2.10;99.90;;;;;;4994362;28;20222;-80
2021/12/09 07:21:23;;;;;;;68.80;25.27;;;-2.10;99.90;;;;;;4994398;28;20195;-80
2021/12/09 07:23:50;;;;;;;75.93;27.50;;;-2.10;99.90;;;;;;4994355;28;20318;-80
2021/12/09 07:26:18;;;;;;;74.07;26.47;;;-2.10;99.90;;;;;;4994191;28;20195;-80
2021/12/09 07:28:46;;;;;;;87.13;30.03;;;-2.00;99.90;;;;;;4994247;28;20194;-80
2021/12/09 07:31:14;;;;;;;74.80;25.90;;;-2.00;99.90;;;;;;5000145;28;20199;-80
2021/12/09 07:33:41;;;;;;;76.87;25.57;;;-2.00;99.90;;;;;;4994236;28;20285;-80
2021/12/09 07:36:09;;;;;;;74.13;26.03;;;-2.00;99.90;;;;;;4993776;28;20224;-80
2021/12/09 07:38:36;;;;;;;75.53;24.43;;;-2.00;99.90;;;;;;4993398;28;20222;-80
2021/12/09 07:41:05;;;;;;;77.57;27.07;;;-2.00;99.90;;;;;;4993494;28;20218;-80
2021/12/09 07:43:33;;;;;;;75.30;27.10;;;-2.00;99.90;;;;;;4993677;28;20730;-80
2021/12/09 07:46:04;;;;;;;72.63;25.77;;;-1.90;99.90;;;;;;4993859;28;20194;-81
2021/12/09 07:48:31;;;;;;;67.13;26.13;;;-1.90;99.90;;;;;;4974090;28;20614;-80
2021/12/09 07:50:58;;;;;;;68.57;26.13;;;-1.90;99.90;;;;;;4974090;28;20203;-80
2021/12/09 07:53:26;;;;;;;73.70;26.40;;;-1.90;99.90;;;;;;4974355;28;20286;-81
2021/12/09 07:55:55;;;;;;;70.47;23.83;;;-1.90;99.90;;;;;;4985409;28;20707;-82
2021/12/09 07:58:24;;;;;;;77.60;27.23;;;-1.90;99.90;;;;;;4993412;28;20201;-80
2021/12/09 08:00:53;;;;;;;68.63;25.47;;;-1.90;99.90;;;;;;5005728;28;20332;-81
2021/12/09 08:03:22;;;;;;;75.77;25.80;;;-1.90;99.90;;;;;;5009638;28;20183;-80
2021/12/09 08:05:51;;;;;;;68.00;25.87;;;-1.80;99.90;;;;;;4993884;28;20190;-81
2021/12/09 08:08:20;;;;;;;80.17;25.53;;;-1.80;99.90;;;;;;4993508;28;20277;-80
2021/12/09 08:10:54;;;;;;;67.57;25.00;;;-1.80;99.90;;;;;;4993702;28;20226;-81
2021/12/09 08:13:23;;;;;;;71.00;26.83;;;-1.80;99.90;;;;;;4993755;28;20675;-80
2021/12/09 08:15:54;;;;;;;65.50;25.43;;;-1.80;99.90;;;;;;4993406;28;20230;-80
2021/12/09 08:18:32;;;;;;;69.83;25.07;;;-1.80;99.90;;;;;;4993586;28;20217;-80
2021/12/09 08:21:01;;;;;;;70.03;25.17;;;-1.80;99.90;;;;;;4995343;28;20206;-82
2021/12/09 08:23:31;;;;;;;52.73;20.60;;;-1.70;99.90;;;;;;4979185;28;20613;-81
2021/12/09 08:26:01;;;;;;;69.90;24.43;;;-1.80;99.90;;;;;;4993183;28;20198;-80
2021/12/09 08:28:28;;;;;;;86.60;29.00;;;-1.80;99.90;;;;;;4999106;28;20677;-81
2021/12/09 08:30:59;;;;;;;78.17;27.03;;;-1.70;99.90;;;;;;4996291;28;20191;-82
2021/12/09 08:33:27;;;;;;;74.50;28.80;;;-1.70;99.90;;;;;;5003031;28;20279;-80
2021/12/09 08:35:55;;;;;;;65.10;24.20;;;-1.70;99.90;;;;;;5003254;28;20585;-81
2021/12/09 08:38:24;;;;;;;70.20;24.83;;;-1.70;99.90;;;;;;4997572;28;20182;-80
2021/12/09 08:40:52;;;;;;;67.20;28.00;;;-1.60;99.90;;;;;;5004030;28;20744;-80
2021/12/09 08:43:20;;;;;;;65.00;24.80;;;-1.60;99.90;;;;;;5003708;28;20187;-81
2021/12/09 08:45:50;;;;;;;76.50;26.07;;;-1.60;99.90;;;;;;5002266;28;20186;-81
2021/12/09 08:48:18;;;;;;;65.77;24.00;;;-1.60;99.90;;;;;;5013413;28;20190;-82
2021/12/09 08:50:45;;;;;;;72.60;29.30;;;-1.60;99.90;;;;;;5007805;28;20248;-82
2021/12/09 08:53:18;;;;;;;66.63;25.33;;;-1.60;99.90;;;;;;5003602;28;20702;-80
2021/12/09 08:55:46;;;;;;;68.87;26.40;;;-1.60;99.90;;;;;;5009698;28;20189;-81
2021/12/09 08:58:15;;;;;;;69.70;26.57;;;-1.60;99.90;;;;;;4997049;28;20239;-80
2021/12/09 09:00:44;;;;;;;64.50;25.63;;;-1.60;99.90;;;;;;4997075;28;20249;-80
2021/12/09 09:03:11;;;;;;;61.60;22.93;;;-1.60;99.90;;;;;;4996401;28;20191;-81
2021/12/09 09:05:41;;;;;;;70.23;26.43;;;-1.60;99.90;;;;;;4996413;28;20740;-81
2021/12/09 09:08:08;;;;;;;76.60;25.80;;;-1.50;99.90;;;;;;4996790;28;20249;-81
2021/12/09 09:10:39;;;;;;;62.17;22.80;;;-1.50;99.90;;;;;;4996652;28;20257;-81
2021/12/09 09:13:06;;;;;;;64.73;24.37;;;-1.50;99.90;;;;;;4996442;28;20242;-81
2021/12/09 09:15:35;;;;;;;65.87;24.77;;;-1.50;99.90;;;;;;4996737;28;20194;-82
2021/12/09 09:18:02;;;;;;;63.63;24.97;;;-1.40;99.90;;;;;;4996603;28;20191;-81
2021/12/09 09:20:32;;;;;;;69.13;26.37;;;-1.40;99.90;;;;;;4996248;28;20214;-80
2021/12/09 09:23:00;;;;;;;73.40;27.97;;;-1.40;99.90;;;;;;4998758;28;20178;-81
2021/12/09 09:25:29;;;;;;;65.87;23.57;;;-1.40;99.90;;;;;;4999134;28;20191;-80
2021/12/09 09:27:57;;;;;;;67.43;28.50;;;-1.40;99.90;;;;;;5008806;28;20737;-81
2021/12/09 09:30:34;;;;;;;71.27;26.47;;;-1.40;99.90;;;;;;5008735;28;20194;-81
2021/12/09 09:33:03;;;;;;;69.17;26.47;;;-1.40;99.90;;;;;;5003916;28;20222;-82
2021/12/09 09:35:57;;;;;;;70.13;27.10;;;-1.30;99.90;;;;;;5010555;28;20189;-81
2021/12/09 09:38:32;;;;;;;71.53;27.30;;;-1.30;99.90;;;;;;4993001;28;20198;-80
2021/12/09 09:41:15;;;;;;;74.73;28.53;;;-1.30;99.90;;;;;;4998369;28;20209;-81
2021/12/09 09:43:58;;;;;;;74.83;26.37;;;-1.30;99.90;;;;;;5004024;28;20186;-80
2021/12/09 09:46:28;;;;;;;67.90;25.87;;;-1.20;99.90;;;;;;5003580;28;20632;-80
2021/12/09 09:48:57;;;;;;;68.60;25.73;;;-1.20;99.90;;;;;;5004570;28;20198;-81
2021/12/09 09:51:28;;;;;;;70.33;24.93;;;-1.20;99.90;;;;;;5005004;28;20236;-80
2021/12/09 09:53:57;;;;;;;69.40;26.90;;;-1.10;99.90;;;;;;5005773;28;20183;-80
2021/12/09 09:56:24;;;;;;;73.03;27.20;;;-1.10;99.90;;;;;;4995639;28;20674;-81
2021/12/09 09:58:55;;;;;;;66.67;26.83;;;-1.10;99.90;;;;;;4995638;28;20194;-81
2021/12/09 10:01:23;;;;;;;69.67;25.83;;;-1.10;99.90;;;;;;4995686;28;20224;-79
2021/12/09 10:03:57;;;;;;;67.97;27.43;;;-1.10;99.90;;;;;;4995264;28;20199;-80
2021/12/09 10:06:25;;;;;;;70.90;26.80;;;-1.10;99.90;;;;;;4999001;28;20174;-80
2021/12/09 10:08:52;;;;;;;65.47;25.10;;;-1.00;99.90;;;;;;5015004;28;20651;-81
2021/12/09 10:11:20;;;;;;;70.20;28.43;;;-1.00;99.90;;;;;;5014085;28;20280;-81
2021/12/09 10:13:47;;;;;;;66.83;25.57;;;-1.00;99.90;;;;;;5012771;28;20276;-81
2021/12/09 10:16:20;;;;;;;67.50;26.40;;;-1.00;99.90;;;;;;5000041;28;20265;-81
2021/12/09 10:18:50;;;;;;;60.00;24.43;;;-1.00;99.90;;;;;;5009947;28;20730;-81
2021/12/09 10:21:23;;;;;;;74.50;27.40;;;-1.00;99.90;;;;;;5014587;28;20221;-80
2021/12/09 10:23:58;;;;;;;69.93;27.53;;;-0.90;99.90;;;;;;4996316;28;20547;-80
2021/12/09 10:26:28;;;;;;;68.83;27.63;;;-0.90;99.90;;;;;;5002812;28;20239;-81
2021/12/09 10:29:04;;;;;;;72.33;27.73;;;-0.90;99.90;;;;;;4995356;28;20190;-81
2021/12/09 10:31:35;;;;;;;62.67;24.90;;;-0.90;99.90;;;;;;5002101;28;20228;-80
2021/12/09 10:34:35;;;;;;;75.53;28.00;;;-0.90;99.90;;;;;;5014419;28;20214;-81
2021/12/09 10:37:12;;;;;;;74.17;27.23;;;-0.90;99.90;;;;;;4994864;28;20233;-81
2021/12/09 10:39:46;;;;;;;73.53;26.83;;;-0.80;99.90;;;;;;4995374;28;20174;-80
2021/12/09 10:42:18;;;;;;;68.70;25.70;;;-0.80;99.90;;;;;;4987204;28;20194;-81
2021/12/09 10:44:49;;;;;;;69.13;25.43;;;-0.80;99.90;;;;;;5002511;28;20183;-80
2021/12/09 10:47:34;;;;;;;75.60;27.23;;;-0.80;99.90;;;;;;5010883;28;20186;-80
2021/12/09 10:50:15;;;;;;;76.60;28.20;;;-0.80;99.90;;;;;;5011299;28;20201;-81
2021/12/09 10:52:47;;;;;;;72.03;27.63;;;-0.70;99.90;;;;;;4994540;28;20214;-82
2021/12/09 10:55:22;;;;;;;72.00;28.00;;;-0.70;99.90;;;;;;4994344;28;20179;-81
2021/12/09 10:58:05;;;;;;;73.80;27.83;;;-0.60;99.90;;;;;;4994835;28;20190;-81
2021/12/09 11:00:43;;;;;;;75.70;29.17;;;-0.60;99.90;;;;;;5010593;28;20610;-80
2021/12/09 11:03:17;;;;;;;70.23;27.70;;;-0.60;99.90;;;;;;5013577;28;20626;-81
2021/12/09 11:05:47;;;;;;;75.67;28.53;;;-0.50;99.90;;;;;;4999100;28;20179;-81
2021/12/09 11:08:29;;;;;;;77.93;29.73;;;-0.50;99.90;;;;;;5007970;28;20186;-81
2021/12/09 11:11:06;;;;;;;69.80;28.37;;;-0.50;99.90;;;;;;5013752;28;20190;-81
2021/12/09 11:13:47;;;;;;;76.37;29.47;;;-0.50;99.90;;;;;;5008406;28;20183;-81
2021/12/09 11:16:23;;;;;;;76.03;29.70;;;-0.50;99.90;;;;;;4994365;28;20190;-81
2021/12/09 11:18:51;;;;;;;77.47;28.73;;;-0.50;99.90;;;;;;4994340;28;20257;-81
2021/12/09 11:21:21;;;;;;;83.90;29.77;;;-0.60;99.90;;;;;;4994102;28;20249;-81
2021/12/09 11:23:52;;;;;;;84.40;32.53;;;-0.50;99.90;;;;;;4993878;28;20195;-81
2021/12/09 11:26:43;;;;;;;80.27;31.30;;;-0.60;99.90;;;;;;4994158;28;20242;-81
2021/12/09 11:29:14;;;;;;;80.00;29.00;;;-0.50;99.90;;;;;;5013534;28;20191;-81
2021/12/09 11:31:47;;;;;;;94.17;35.80;;;-0.50;99.90;;;;;;5013899;28;20178;-81
2021/12/09 11:34:18;;;;;;;78.70;30.07;;;-0.50;99.90;;;;;;5004538;28;20230;-81
2021/12/09 11:36:49;;;;;;;87.17;35.20;;;-0.40;99.90;;;;;;4993958;28;20194;-81
2021/12/09 11:39:25;;;;;;;85.83;30.73;;;-0.40;99.90;;;;;;4993544;28;20722;-81
2021/12/09 11:41:53;;;;;;;78.90;30.67;;;-0.40;99.90;;;;;;4993324;28;20745;-80
2021/12/09 11:44:21;;;;;;;85.37;34.07;;;-0.40;99.90;;;;;;4993624;28;20277;-81
2021/12/09 11:46:49;;;;;;;84.43;34.07;;;-0.30;99.90;;;;;;4993930;28;20195;-81
2021/12/09 11:49:16;;;;;;;79.80;32.90;;;-0.30;99.90;;;;;;4993848;28;20198;-81
2021/12/09 11:51:43;;;;;;;66.87;26.27;;;-0.20;99.90;;;;;;4993442;28;20228;-80
2021/12/09 11:54:11;;;;;;;82.93;30.70;;;-0.20;99.90;;;;;;4993080;28;20652;-81
2021/12/09 11:56:57;;;;;;;79.03;29.30;;;-0.10;99.90;;;;;;4993884;28;20195;-81
2021/12/09 12:11:34;;;;;;;68.03;26.97;;;0.50;99.90;;;;;;5006043;28;20654;-80
2021/12/09 12:14:08;;;;;;;67.77;25.77;;;0.50;99.90;;;;;;4996573;28;20182;-81
2021/12/09 12:16:57;;;;;;;70.23;28.37;;;0.50;99.90;;;;;;4994536;28;20233;-80
2021/12/09 12:20:03;;;;;;;73.20;28.93;;;0.50;99.90;;;;;;4993425;28;20200;-80
2021/12/09 12:26:03;;;;;;;79.40;28.03;;;0.50;99.90;;;;;;4980155;28;20618;-80
2021/12/09 12:28:51;;;;;;;73.10;27.63;;;0.50;99.90;;;;;;4974245;28;20184;-79
2021/12/09 12:34:58;;;;;;;64.17;26.73;;;0.70;99.90;;;;;;4992847;28;20230;-80
2021/12/09 12:37:44;;;;;;;59.40;26.50;;;0.70;99.90;;;;;;5001840;28;20322;-79
2021/12/09 12:40:15;;;;;;;69.53;27.10;;;0.70;99.90;;;;;;4997530;28;20264;-80
2021/12/09 12:42:52;;;;;;;65.20;26.40;;;0.70;99.90;;;;;;4993310;28;20225;-80
2021/12/09 12:45:44;;;;;;;67.97;26.57;;;0.50;99.90;;;;;;4993227;28;20198;-80
2021/12/09 12:48:59;;;;;;;69.07;26.40;;;0.40;99.90;;;;;;4993216;28;20205;-80
2021/12/09 12:51:31;;;;;;;74.90;28.20;;;0.30;99.90;;;;;;4985400;28;20660;-79
2021/12/09 12:54:01;;;;;;;66.77;27.70;;;0.20;99.90;;;;;;4992808;28;20193;-80
2021/12/09 12:56:32;;;;;;;72.53;28.60;;;0.20;99.90;;;;;;4988774;28;20178;-80
2021/12/09 12:59:21;;;;;;;72.67;29.00;;;0.20;99.90;;;;;;5006106;28;20207;-79
2021/12/09 13:02:20;;;;;;;73.07;28.97;;;0.20;99.90;;;;;;4992787;28;20210;-80
2021/12/09 13:05:01;;;;;;;75.90;29.30;;;0.20;99.90;;;;;;4992747;28;20186;-79